sensor_id;sensor_type;location;lat;lon;timestamp;P1;durP1;ratioP1;P2;durP2;ratioP2
33836;SDS011;20140;49.356;8.812;2022-08-19T16:07:38;6.32;;;5.82;;
33836;SDS011;20140;49.356;8.812;2022-08-19T16:10:04;11.53;;;7.10;;
33836;SDS011;20140;49.356;8.812;2022-08-19T16:12:31;7.10;;;6.40;;
33836;SDS011;20140;49.356;8.812;2022-08-19T16:14:56;7.57;;;6.53;;
33836;SDS011;20140;49.356;8.812;2022-08-19T16:17:23;8.15;;;6.60;;
33836;SDS011;20140;49.356;8.812;2022-08-19T16:19:48;7.13;;;6.43;;
33836;SDS011;20140;49.356;8.812;2022-08-19T16:22:14;7.33;;;6.73;;
33836;SDS011;20140;49.356;8.812;2022-08-19T16:24:40;6.50;;;6.00;;
33836;SDS011;20140;49.356;8.812;2022-08-19T16:27:06;7.27;;;6.57;;
33836;SDS011;20140;49.356;8.812;2022-08-19T16:29:32;6.60;;;6.00;;
33836;SDS011;20140;49.356;8.812;2022-08-19T16:32:01;7.47;;;6.82;;
33836;SDS011;20140;49.356;8.812;2022-08-19T16:34:28;6.78;;;6.28;;
33836;SDS011;20140;49.356;8.812;2022-08-19T16:36:54;8.17;;;6.70;;
33836;SDS011;20140;49.356;8.812;2022-08-19T16:39:19;7.20;;;6.47;;
33836;SDS011;20140;49.356;8.812;2022-08-19T16:41:46;6.60;;;6.00;;
33836;SDS011;20140;49.356;8.812;2022-08-19T16:44:12;7.90;;;6.67;;
33836;SDS011;20140;49.356;8.812;2022-08-19T16:46:39;6.67;;;6.07;;
33836;SDS011;20140;49.356;8.812;2022-08-19T16:49:08;7.05;;;6.38;;
33836;SDS011;20140;49.356;8.812;2022-08-19T16:51:35;6.95;;;6.43;;
33836;SDS011;20140;49.356;8.812;2022-08-19T16:54:01;6.68;;;6.18;;
33836;SDS011;20140;49.356;8.812;2022-08-19T16:56:28;6.75;;;6.15;;
33836;SDS011;20140;49.356;8.812;2022-08-19T16:58:53;6.97;;;6.28;;
33836;SDS011;20140;49.356;8.812;2022-08-19T17:01:19;7.32;;;6.03;;
33836;SDS011;20140;49.356;8.812;2022-08-19T17:03:46;6.95;;;6.35;;
33836;SDS011;20140;49.356;8.812;2022-08-19T17:06:17;6.95;;;5.93;;
33836;SDS011;20140;49.356;8.812;2022-08-19T17:08:44;7.03;;;6.32;;
33836;SDS011;20140;49.356;8.812;2022-08-19T17:11:10;6.28;;;5.88;;
33836;SDS011;20140;49.356;8.812;2022-08-19T17:13:36;6.60;;;6.00;;
33836;SDS011;20140;49.356;8.812;2022-08-19T17:16:02;7.05;;;6.45;;
33836;SDS011;20140;49.356;8.812;2022-08-19T17:18:29;6.90;;;6.30;;
33836;SDS011;20140;49.356;8.812;2022-08-19T17:20:56;7.82;;;6.28;;
33836;SDS011;20140;49.356;8.812;2022-08-19T17:23:22;6.93;;;6.30;;
33836;SDS011;20140;49.356;8.812;2022-08-19T17:25:49;6.63;;;6.13;;
33836;SDS011;20140;49.356;8.812;2022-08-19T17:28:16;7.07;;;6.38;;
33836;SDS011;20140;49.356;8.812;2022-08-19T17:30:44;7.72;;;6.95;;
33836;SDS011;20140;49.356;8.812;2022-08-19T17:33:10;9.43;;;7.27;;
33836;SDS011;20140;49.356;8.812;2022-08-19T17:35:35;10.00;;;7.38;;
33836;SDS011;20140;49.356;8.812;2022-08-19T17:38:03;12.32;;;7.65;;
33836;SDS011;20140;49.356;8.812;2022-08-19T17:40:31;7.78;;;6.97;;
33836;SDS011;20140;49.356;8.812;2022-08-19T17:42:57;9.38;;;7.00;;
33836;SDS011;20140;49.356;8.812;2022-08-19T17:45:22;7.93;;;7.23;;
33836;SDS011;20140;49.356;8.812;2022-08-19T17:47:48;17.70;;;8.18;;
33836;SDS011;20140;49.356;8.812;2022-08-19T17:50:13;9.03;;;7.10;;
33836;SDS011;20140;49.356;8.812;2022-08-19T17:52:40;8.63;;;7.82;;
33836;SDS011;20140;49.356;8.812;2022-08-19T17:55:07;16.92;;;8.25;;
33836;SDS011;20140;49.356;8.812;2022-08-19T17:57:34;32.70;;;9.43;;
33836;SDS011;20140;49.356;8.812;2022-08-19T18:00:00;26.92;;;9.10;;
33836;SDS011;20140;49.356;8.812;2022-08-19T18:02:26;26.70;;;9.83;;
33836;SDS011;20140;49.356;8.812;2022-08-19T18:04:52;27.27;;;9.40;;
33836;SDS011;20140;49.356;8.812;2022-08-19T18:07:18;23.93;;;9.30;;
33836;SDS011;20140;49.356;8.812;2022-08-19T18:09:45;24.40;;;8.65;;
33836;SDS011;20140;49.356;8.812;2022-08-19T18:12:19;21.95;;;8.15;;
33836;SDS011;20140;49.356;8.812;2022-08-19T18:14:46;18.98;;;8.40;;
33836;SDS011;20140;49.356;8.812;2022-08-19T18:17:13;21.07;;;8.27;;
33836;SDS011;20140;49.356;8.812;2022-08-19T18:19:43;16.45;;;7.35;;
33836;SDS011;20140;49.356;8.812;2022-08-19T18:22:12;16.97;;;7.17;;
33836;SDS011;20140;49.356;8.812;2022-08-19T18:24:51;21.23;;;7.53;;
33836;SDS011;20140;49.356;8.812;2022-08-19T18:27:17;11.35;;;7.22;;
33836;SDS011;20140;49.356;8.812;2022-08-19T18:29:43;14.93;;;7.23;;
33836;SDS011;20140;49.356;8.812;2022-08-19T18:32:09;10.70;;;6.85;;
33836;SDS011;20140;49.356;8.812;2022-08-19T18:34:38;11.57;;;7.05;;
33836;SDS011;20140;49.356;8.812;2022-08-19T18:37:05;8.00;;;6.55;;
33836;SDS011;20140;49.356;8.812;2022-08-19T18:39:30;10.98;;;7.07;;
33836;SDS011;20140;49.356;8.812;2022-08-19T18:42:15;12.37;;;7.33;;
33836;SDS011;20140;49.356;8.812;2022-08-19T18:45:00;10.10;;;6.43;;
33836;SDS011;20140;49.356;8.812;2022-08-19T18:47:45;10.43;;;6.68;;
33836;SDS011;20140;49.356;8.812;2022-08-19T18:50:29;7.30;;;5.95;;
33836;SDS011;20140;49.356;8.812;2022-08-19T18:52:55;6.70;;;6.00;;
33836;SDS011;20140;49.356;8.812;2022-08-19T18:55:21;13.17;;;6.40;;
33836;SDS011;20140;49.356;8.812;2022-08-19T18:57:47;6.30;;;5.75;;
33836;SDS011;20140;49.356;8.812;2022-08-19T19:00:14;6.20;;;5.60;;
33836;SDS011;20140;49.356;8.812;2022-08-19T19:02:40;6.82;;;6.18;;
33836;SDS011;20140;49.356;8.812;2022-08-19T19:05:09;7.22;;;6.53;;
33836;SDS011;20140;49.356;8.812;2022-08-19T19:07:38;7.88;;;6.35;;
33836;SDS011;20140;49.356;8.812;2022-08-19T19:10:04;6.47;;;5.97;;
33836;SDS011;20140;49.356;8.812;2022-08-19T19:12:33;6.97;;;6.10;;
33836;SDS011;20140;49.356;8.812;2022-08-19T19:15:02;7.28;;;6.60;;
33836;SDS011;20140;49.356;8.812;2022-08-19T19:17:30;6.68;;;6.07;;
33836;SDS011;20140;49.356;8.812;2022-08-19T19:19:56;7.13;;;6.22;;
33836;SDS011;20140;49.356;8.812;2022-08-19T19:22:22;6.13;;;5.50;;
33836;SDS011;20140;49.356;8.812;2022-08-19T19:24:48;6.18;;;5.60;;
33836;SDS011;20140;49.356;8.812;2022-08-19T19:27:15;5.93;;;5.43;;
33836;SDS011;20140;49.356;8.812;2022-08-19T19:29:44;6.82;;;6.22;;
33836;SDS011;20140;49.356;8.812;2022-08-19T19:32:16;7.78;;;6.15;;
33836;SDS011;20140;49.356;8.812;2022-08-19T19:34:53;6.30;;;5.70;;
33836;SDS011;20140;49.356;8.812;2022-08-19T19:37:19;6.30;;;5.80;;
33836;SDS011;20140;49.356;8.812;2022-08-19T19:39:44;6.70;;;6.10;;
33836;SDS011;20140;49.356;8.812;2022-08-19T19:42:16;10.73;;;6.78;;
33836;SDS011;20140;49.356;8.812;2022-08-19T19:44:44;6.60;;;5.97;;
33836;SDS011;20140;49.356;8.812;2022-08-19T19:47:12;7.60;;;5.95;;
33836;SDS011;20140;49.356;8.812;2022-08-19T19:49:39;6.37;;;5.77;;
33836;SDS011;20140;49.356;8.812;2022-08-19T19:52:05;5.90;;;5.30;;
33836;SDS011;20140;49.356;8.812;2022-08-19T19:54:31;5.77;;;5.37;;
33836;SDS011;20140;49.356;8.812;2022-08-19T19:56:57;6.75;;;6.20;;
33836;SDS011;20140;49.356;8.812;2022-08-19T19:59:23;6.00;;;5.43;;
33836;SDS011;20140;49.356;8.812;2022-08-19T20:01:49;6.17;;;5.57;;
33836;SDS011;20140;49.356;8.812;2022-08-19T20:04:15;8.57;;;6.10;;
33836;SDS011;20140;49.356;8.812;2022-08-19T20:06:42;7.67;;;6.97;;
33836;SDS011;20140;49.356;8.812;2022-08-19T20:09:11;6.80;;;6.10;;
33836;SDS011;20140;49.356;8.812;2022-08-19T20:11:45;6.85;;;6.22;;
33836;SDS011;20140;49.356;8.812;2022-08-19T20:16:43;7.28;;;6.57;;
33836;SDS011;20140;49.356;8.812;2022-08-19T20:19:11;7.35;;;6.65;;
33836;SDS011;20140;49.356;8.812;2022-08-19T20:21:39;7.35;;;6.65;;
33836;SDS011;20140;49.356;8.812;2022-08-19T20:24:08;7.07;;;6.47;;
33836;SDS011;20140;49.356;8.812;2022-08-19T20:26:36;7.43;;;6.72;;
33836;SDS011;20140;49.356;8.812;2022-08-19T20:29:03;7.43;;;6.70;;
33836;SDS011;20140;49.356;8.812;2022-08-19T20:31:29;12.77;;;7.10;;
33836;SDS011;20140;49.356;8.812;2022-08-19T20:33:54;7.18;;;6.25;;
33836;SDS011;20140;49.356;8.812;2022-08-19T20:36:20;6.87;;;6.27;;
33836;SDS011;20140;49.356;8.812;2022-08-19T20:38:47;7.43;;;6.72;;
33836;SDS011;20140;49.356;8.812;2022-08-19T20:41:12;7.38;;;6.68;;
33836;SDS011;20140;49.356;8.812;2022-08-19T20:43:39;6.40;;;5.85;;
33836;SDS011;20140;49.356;8.812;2022-08-19T20:46:04;7.07;;;6.38;;
33836;SDS011;20140;49.356;8.812;2022-08-19T20:48:30;7.32;;;6.50;;
33836;SDS011;20140;49.356;8.812;2022-08-19T20:50:56;7.30;;;6.27;;
33836;SDS011;20140;49.356;8.812;2022-08-19T20:53:22;6.70;;;5.90;;
33836;SDS011;20140;49.356;8.812;2022-08-19T20:55:51;7.35;;;6.68;;
33836;SDS011;20140;49.356;8.812;2022-08-19T20:58:17;7.95;;;7.15;;
33836;SDS011;20140;49.356;8.812;2022-08-19T21:00:45;6.95;;;6.35;;
33836;SDS011;20140;49.356;8.812;2022-08-19T21:03:12;7.57;;;6.82;;
33836;SDS011;20140;49.356;8.812;2022-08-19T21:05:42;7.93;;;7.20;;
33836;SDS011;20140;49.356;8.812;2022-08-19T21:08:09;8.10;;;7.30;;
33836;SDS011;20140;49.356;8.812;2022-08-19T21:10:35;8.87;;;8.07;;
33836;SDS011;20140;49.356;8.812;2022-08-19T21:13:00;7.63;;;6.90;;
33836;SDS011;20140;49.356;8.812;2022-08-19T21:15:27;8.30;;;7.50;;
33836;SDS011;20140;49.356;8.812;2022-08-19T21:17:53;7.63;;;7.03;;
33836;SDS011;20140;49.356;8.812;2022-08-19T21:20:18;8.50;;;7.60;;
33836;SDS011;20140;49.356;8.812;2022-08-19T21:22:44;9.77;;;8.65;;
33836;SDS011;20140;49.356;8.812;2022-08-19T21:25:10;7.67;;;7.07;;
33836;SDS011;20140;49.356;8.812;2022-08-19T21:27:36;9.18;;;8.25;;
33836;SDS011;20140;49.356;8.812;2022-08-19T21:30:02;8.05;;;7.35;;
33836;SDS011;20140;49.356;8.812;2022-08-19T21:32:28;8.40;;;7.43;;
33836;SDS011;20140;49.356;8.812;2022-08-19T21:34:54;8.40;;;7.70;;
33836;SDS011;20140;49.356;8.812;2022-08-19T21:37:19;9.30;;;7.32;;
33836;SDS011;20140;49.356;8.812;2022-08-19T21:39:45;8.13;;;7.32;;
33836;SDS011;20140;49.356;8.812;2022-08-19T21:42:11;8.55;;;7.78;;
33836;SDS011;20140;49.356;8.812;2022-08-19T21:44:38;9.63;;;8.73;;
33836;SDS011;20140;49.356;8.812;2022-08-19T21:47:04;10.27;;;8.65;;
33836;SDS011;20140;49.356;8.812;2022-08-19T21:49:30;9.27;;;8.48;;
33836;SDS011;20140;49.356;8.812;2022-08-19T21:51:56;8.00;;;7.27;;
33836;SDS011;20140;49.356;8.812;2022-08-19T21:54:22;9.70;;;8.70;;
33836;SDS011;20140;49.356;8.812;2022-08-19T21:56:48;9.75;;;8.85;;
33836;SDS011;20140;49.356;8.812;2022-08-19T21:59:14;9.87;;;8.87;;
33836;SDS011;20140;49.356;8.812;2022-08-19T22:01:40;9.32;;;8.52;;
33836;SDS011;20140;49.356;8.812;2022-08-19T22:04:06;10.45;;;8.85;;
33836;SDS011;20140;49.356;8.812;2022-08-19T22:06:32;10.20;;;9.20;;
33836;SDS011;20140;49.356;8.812;2022-08-19T22:08:57;9.57;;;8.57;;
33836;SDS011;20140;49.356;8.812;2022-08-19T22:11:23;8.93;;;8.03;;
33836;SDS011;20140;49.356;8.812;2022-08-19T22:13:50;9.45;;;8.57;;
33836;SDS011;20140;49.356;8.812;2022-08-19T22:16:20;10.43;;;8.90;;
33836;SDS011;20140;49.356;8.812;2022-08-19T22:18:47;9.65;;;8.85;;
33836;SDS011;20140;49.356;8.812;2022-08-19T22:21:14;11.40;;;8.82;;
33836;SDS011;20140;49.356;8.812;2022-08-19T22:23:41;10.05;;;9.15;;
33836;SDS011;20140;49.356;8.812;2022-08-19T22:26:10;10.10;;;9.10;;
33836;SDS011;20140;49.356;8.812;2022-08-19T22:28:36;9.57;;;8.68;;
33836;SDS011;20140;49.356;8.812;2022-08-19T22:31:02;10.38;;;9.30;;
33836;SDS011;20140;49.356;8.812;2022-08-19T22:33:28;10.75;;;9.65;;
33836;SDS011;20140;49.356;8.812;2022-08-19T22:35:54;10.98;;;8.55;;
33836;SDS011;20140;49.356;8.812;2022-08-19T22:38:20;9.05;;;8.15;;
33836;SDS011;20140;49.356;8.812;2022-08-19T22:40:47;10.03;;;9.13;;
33836;SDS011;20140;49.356;8.812;2022-08-19T22:43:21;10.23;;;9.32;;
33836;SDS011;20140;49.356;8.812;2022-08-19T22:45:50;10.38;;;9.38;;
33836;SDS011;20140;49.356;8.812;2022-08-19T22:48:17;10.68;;;9.68;;
33836;SDS011;20140;49.356;8.812;2022-08-19T22:50:45;11.45;;;10.25;;
33836;SDS011;20140;49.356;8.812;2022-08-19T22:53:32;12.50;;;9.98;;
33836;SDS011;20140;49.356;8.812;2022-08-19T22:55:59;11.05;;;9.95;;
33836;SDS011;20140;49.356;8.812;2022-08-19T22:58:25;12.48;;;9.68;;
33836;SDS011;20140;49.356;8.812;2022-08-19T23:00:51;10.30;;;9.30;;
33836;SDS011;20140;49.356;8.812;2022-08-19T23:03:16;10.47;;;9.47;;
33836;SDS011;20140;49.356;8.812;2022-08-19T23:05:42;10.07;;;9.17;;
33836;SDS011;20140;49.356;8.812;2022-08-19T23:08:07;11.43;;;10.30;;
33836;SDS011;20140;49.356;8.812;2022-08-19T23:10:33;10.68;;;9.57;;
33836;SDS011;20140;49.356;8.812;2022-08-19T23:12:58;10.37;;;9.30;;
33836;SDS011;20140;49.356;8.812;2022-08-19T23:15:28;10.00;;;8.95;;
33836;SDS011;20140;49.356;8.812;2022-08-19T23:17:56;11.88;;;9.98;;
33836;SDS011;20140;49.356;8.812;2022-08-19T23:20:25;9.77;;;8.77;;
33836;SDS011;20140;49.356;8.812;2022-08-19T23:22:54;10.93;;;9.82;;
33836;SDS011;20140;49.356;8.812;2022-08-19T23:25:21;11.02;;;9.93;;
33836;SDS011;20140;49.356;8.812;2022-08-19T23:27:49;11.50;;;10.50;;
33836;SDS011;20140;49.356;8.812;2022-08-19T23:30:35;11.43;;;10.32;;
33836;SDS011;20140;49.356;8.812;2022-08-19T23:33:05;11.55;;;10.38;;
33836;SDS011;20140;49.356;8.812;2022-08-19T23:35:37;10.95;;;9.82;;
33836;SDS011;20140;49.356;8.812;2022-08-19T23:38:05;10.30;;;9.30;;
33836;SDS011;20140;49.356;8.812;2022-08-19T23:40:32;10.13;;;9.15;;
33836;SDS011;20140;49.356;8.812;2022-08-19T23:42:58;10.45;;;9.18;;
33836;SDS011;20140;49.356;8.812;2022-08-19T23:45:26;10.45;;;9.35;;
33836;SDS011;20140;49.356;8.812;2022-08-19T23:47:54;10.80;;;9.60;;
33836;SDS011;20140;49.356;8.812;2022-08-19T23:50:20;11.20;;;10.00;;
33836;SDS011;20140;49.356;8.812;2022-08-19T23:52:49;11.13;;;10.05;;
33836;SDS011;20140;49.356;8.812;2022-08-19T23:55:21;12.35;;;10.70;;
33836;SDS011;20140;49.356;8.812;2022-08-19T23:57:48;11.90;;;10.77;;
